createdAt,value
2023-04-30T00:03:02.527Z,92
2023-04-30T00:08:07.682Z,92
2023-04-30T00:13:13.874Z,92.5
2023-04-30T00:18:19.893Z,94
2023-04-30T00:23:26.063Z,94.5
2023-04-30T00:28:32.128Z,94.5
2023-04-30T00:33:38.243Z,94
2023-04-30T00:38:44.342Z,94.5
2023-04-30T00:43:50.457Z,96.5
2023-04-30T00:48:56.585Z,97
2023-04-30T00:54:02.719Z,97.5
2023-04-30T00:59:08.832Z,97.5
2023-04-30T01:04:14.939Z,98.5
2023-04-30T01:09:21.076Z,97
2023-04-30T01:14:26.203Z,97.5
2023-04-30T01:24:38.437Z,99.5
2023-04-30T01:29:44.663Z,99.5
2023-04-30T01:34:50.669Z,99
2023-04-30T01:39:56.965Z,98
2023-04-30T01:45:02.968Z,99.5
2023-04-30T01:50:09.027Z,99.5
2023-04-30T01:55:15.171Z,99.5
2023-04-30T02:00:21.296Z,99.5
2023-04-30T02:05:27.407Z,99.5
2023-04-30T02:10:33.534Z,99.5
2023-04-30T02:15:39.799Z,99.5
2023-04-30T02:20:44.847Z,99.5
2023-04-30T02:25:50.893Z,99.5
2023-04-30T02:30:57.024Z,99.5
2023-04-30T02:36:03.166Z,99.5
2023-04-30T02:41:09.231Z,99.5
2023-04-30T02:46:15.354Z,99.5
2023-04-30T02:51:21.544Z,99.5
2023-04-30T02:56:27.656Z,99.5
2023-04-30T03:01:33.766Z,99.5
2023-04-30T03:06:39.834Z,99.5
2023-04-30T03:11:45.949Z,99.5
2023-04-30T03:16:52.053Z,99.5
2023-04-30T03:21:58.181Z,99.5
2023-04-30T03:27:03.326Z,99.5
2023-04-30T03:32:09.500Z,99.5
2023-04-30T03:37:15.557Z,99.5
2023-04-30T03:42:21.762Z,99.5
2023-04-30T03:47:27.855Z,99.5
2023-04-30T03:52:33.990Z,99.5
2023-04-30T03:57:40.007Z,99.5
2023-04-30T04:02:46.147Z,99.5
2023-04-30T04:07:52.250Z,99.5
2023-04-30T04:12:58.403Z,99.5
2023-04-30T04:18:04.513Z,99.5
2023-04-30T04:23:10.614Z,98
2023-04-30T04:28:16.786Z,92
2023-04-30T04:33:21.862Z,89
2023-04-30T04:38:27.978Z,82.5
2023-04-30T04:43:34.142Z,79.5
2023-04-30T04:48:40.223Z,76.5
2023-04-30T04:53:46.321Z,75
2023-04-30T04:58:52.519Z,72
2023-04-30T05:03:58.815Z,69.5
2023-04-30T05:09:04.861Z,67.5
2023-04-30T05:14:10.903Z,68
2023-04-30T05:19:17.045Z,67.5
2023-04-30T05:24:23.137Z,69.5
2023-04-30T05:29:29.281Z,66.5
2023-04-30T05:34:35.363Z,61
2023-04-30T05:39:40.672Z,64
2023-04-30T05:44:46.769Z,61.5
2023-04-30T05:49:52.761Z,61
2023-04-30T05:54:58.825Z,60.5
2023-04-30T06:00:05.032Z,60.5
2023-04-30T06:05:11.054Z,63.5
2023-04-30T06:10:16.189Z,56
2023-04-30T06:15:22.308Z,58.5
2023-04-30T06:20:28.478Z,63.5
2023-04-30T06:25:34.541Z,58.5
2023-04-30T06:30:40.732Z,55
2023-04-30T06:35:46.769Z,57
2023-04-30T06:40:52.879Z,57.5
2023-04-30T06:45:58.954Z,54
2023-04-30T06:51:05.117Z,53
2023-04-30T06:56:11.205Z,52.5
2023-04-30T07:01:17.293Z,52
2023-04-30T07:06:23.405Z,52.5
2023-04-30T07:11:29.571Z,54
2023-04-30T07:16:34.647Z,55.5
2023-04-30T07:21:40.763Z,62
2023-04-30T07:26:46.964Z,62
2023-04-30T07:31:53.055Z,57.5
2023-04-30T07:36:59.105Z,54
2023-04-30T07:42:05.280Z,51.5
2023-04-30T07:47:11.327Z,56.5
2023-04-30T07:52:17.591Z,48.5
2023-04-30T07:57:23.525Z,51.5
2023-04-30T08:02:29.648Z,50.5
2023-04-30T08:07:35.946Z,52.5
2023-04-30T08:12:41.865Z,51
2023-04-30T08:17:48.210Z,49.5
2023-04-30T08:22:53.082Z,53
2023-04-30T08:27:59.260Z,47.5
2023-04-30T08:33:05.329Z,46.5
2023-04-30T08:38:11.423Z,48.5
2023-04-30T08:43:17.581Z,46.5
2023-04-30T08:48:23.648Z,48
2023-04-30T08:53:29.758Z,43
2023-04-30T08:58:35.901Z,43.5
2023-04-30T09:03:41.986Z,46
2023-04-30T09:08:48.099Z,46
2023-04-30T09:13:54.184Z,48
2023-04-30T09:19:00.290Z,45.5
2023-04-30T09:24:06.467Z,43.5
2023-04-30T09:29:11.620Z,43.5
2023-04-30T09:34:17.723Z,42.5
2023-04-30T09:39:23.759Z,46
2023-04-30T09:44:29.937Z,44
2023-04-30T09:49:35.967Z,43.5
2023-04-30T09:54:42.156Z,47
2023-04-30T09:59:48.174Z,42.5
2023-04-30T10:04:54.290Z,43.5
2023-04-30T10:10:00.590Z,42
2023-04-30T10:15:06.513Z,38
2023-04-30T10:20:12.683Z,41.5
2023-04-30T10:25:18.718Z,45
2023-04-30T10:30:24.935Z,46
2023-04-30T10:35:29.978Z,45
2023-04-30T10:40:36.072Z,47.5
2023-04-30T10:45:42.187Z,43.5
2023-04-30T10:50:48.404Z,42.5
2023-04-30T10:55:54.420Z,40
2023-04-30T11:01:00.570Z,41.5
2023-04-30T11:06:06.649Z,43.5
2023-04-30T11:11:12.792Z,45
2023-04-30T11:16:18.957Z,38
2023-04-30T11:21:24.971Z,40
2023-04-30T11:26:31.075Z,43
2023-04-30T11:31:37.263Z,40.5
2023-04-30T11:36:43.316Z,43
2023-04-30T11:41:48.491Z,38.5
2023-04-30T11:52:00.662Z,40
2023-04-30T11:57:06.788Z,40.5
2023-04-30T12:02:12.899Z,39
2023-04-30T12:07:19.149Z,41
2023-04-30T12:12:25.106Z,40.5
2023-04-30T12:17:31.206Z,38.5
2023-04-30T12:22:37.334Z,38
2023-04-30T12:27:43.433Z,40.5
2023-04-30T12:32:49.554Z,37.5
2023-04-30T12:37:55.694Z,38
2023-04-30T12:43:01.764Z,40
2023-04-30T12:48:06.901Z,37.5
2023-04-30T12:53:13.020Z,41
2023-04-30T12:58:19.117Z,40.5
2023-04-30T13:03:25.270Z,40.5
2023-04-30T13:08:31.358Z,44.5
2023-04-30T13:13:37.444Z,44.5
2023-04-30T13:18:43.564Z,37.5
2023-04-30T13:23:49.676Z,37.5
2023-04-30T13:28:55.883Z,43
2023-04-30T13:34:01.940Z,38
2023-04-30T13:39:08.072Z,42.5
2023-04-30T13:44:14.162Z,37
2023-04-30T13:49:20.260Z,34
2023-04-30T13:54:25.428Z,39.5
2023-04-30T13:59:31.566Z,34.5
2023-04-30T14:04:37.585Z,39
2023-04-30T14:09:43.920Z,37.5
2023-04-30T14:14:49.801Z,35
2023-04-30T14:19:55.913Z,41
2023-04-30T14:25:02.026Z,33.5
2023-04-30T14:30:08.220Z,36.5
2023-04-30T14:35:14.265Z,34.5
2023-04-30T14:40:20.444Z,36
2023-04-30T14:45:26.594Z,41
2023-04-30T14:50:32.656Z,35.5
2023-04-30T14:55:38.701Z,37.5
2023-04-30T15:00:43.818Z,38.5
2023-04-30T15:05:49.971Z,37
2023-04-30T15:10:56.068Z,37
2023-04-30T15:16:02.366Z,38.5
2023-04-30T15:21:08.356Z,38.5
2023-04-30T15:26:14.413Z,37
2023-04-30T15:31:20.510Z,37.5
2023-04-30T15:36:26.654Z,38.5
2023-04-30T15:41:32.826Z,36
2023-04-30T15:46:38.873Z,37.5
2023-04-30T15:51:44.960Z,38.5
2023-04-30T15:56:51.055Z,37.5
2023-04-30T16:01:57.170Z,38
2023-04-30T16:07:02.303Z,40
2023-04-30T16:12:08.437Z,43
2023-04-30T16:17:14.540Z,39.5
2023-04-30T16:22:20.637Z,40
2023-04-30T16:27:26.778Z,39
2023-04-30T16:32:32.838Z,36.5
2023-04-30T16:37:38.977Z,40
2023-04-30T16:42:45.084Z,40.5
2023-04-30T16:47:51.183Z,40.5
2023-04-30T16:52:57.431Z,39
2023-04-30T16:58:03.417Z,39
2023-04-30T17:03:09.519Z,40
2023-04-30T17:08:15.669Z,39.5
2023-04-30T17:13:20.740Z,40
2023-04-30T17:18:26.878Z,40.5
2023-04-30T17:23:32.964Z,39
2023-04-30T17:28:39.085Z,42.5
2023-04-30T17:33:45.276Z,45.5
2023-04-30T17:38:51.309Z,45
2023-04-30T17:43:57.467Z,47.5
2023-04-30T17:49:03.578Z,52.5
2023-04-30T17:54:09.630Z,52
2023-04-30T17:59:15.856Z,52
2023-04-30T18:04:21.858Z,59.5
2023-04-30T18:09:27.967Z,60.5
2023-04-30T18:14:34.125Z,64.5
2023-04-30T18:19:39.265Z,65.5
2023-04-30T18:24:45.310Z,63
2023-04-30T18:29:51.555Z,65
2023-04-30T18:34:57.646Z,72.5
2023-04-30T18:40:03.803Z,73.5
2023-04-30T18:45:09.768Z,74
2023-04-30T18:50:15.869Z,75
2023-04-30T18:55:21.997Z,74
2023-04-30T19:00:28.105Z,75.5
2023-04-30T19:05:34.214Z,77.5
2023-04-30T19:10:40.424Z,77.5
2023-04-30T19:15:46.505Z,80.5
2023-04-30T19:20:52.574Z,82
2023-04-30T19:25:57.710Z,83
2023-04-30T19:31:03.851Z,82.5
2023-04-30T19:36:09.980Z,86
2023-04-30T19:41:16.241Z,85.5
2023-04-30T19:46:22.210Z,88.5
2023-04-30T19:51:28.400Z,89
2023-04-30T19:56:34.408Z,88
2023-04-30T20:01:40.539Z,86.5
2023-04-30T20:06:46.788Z,83.5
2023-04-30T20:11:52.854Z,83.5
2023-04-30T20:16:58.908Z,86
2023-04-30T20:22:05.083Z,83
2023-04-30T20:27:11.126Z,87
2023-04-30T20:32:16.317Z,87.5
2023-04-30T20:37:22.453Z,89.5
2023-04-30T20:42:28.537Z,90.5
2023-04-30T20:47:34.666Z,90.5
2023-04-30T20:52:40.899Z,89.5
2023-04-30T20:57:46.877Z,88.5
2023-04-30T21:02:53.013Z,87.5
2023-04-30T21:07:59.106Z,88.5
2023-04-30T21:13:05.237Z,86.5
2023-04-30T21:18:11.419Z,88
2023-04-30T21:23:17.514Z,93
2023-04-30T21:28:23.629Z,90.5
2023-04-30T21:33:29.721Z,93.5
2023-04-30T21:38:34.841Z,94.5
2023-04-30T21:43:40.967Z,96.5
2023-04-30T21:48:47.068Z,93.5
2023-04-30T21:53:53.195Z,96
2023-04-30T21:58:59.309Z,94
2023-04-30T22:04:05.410Z,93
2023-04-30T22:09:11.523Z,91.5
2023-04-30T22:14:17.634Z,91.5
2023-04-30T22:19:23.769Z,96
2023-04-30T22:24:29.908Z,96.5
2023-04-30T22:29:36.020Z,98
2023-04-30T22:34:42.106Z,97.5
2023-04-30T22:39:48.262Z,98.5
2023-04-30T22:44:53.349Z,98
2023-04-30T22:49:59.472Z,96
2023-04-30T22:55:05.602Z,95
2023-04-30T23:00:11.847Z,94
2023-04-30T23:05:17.815Z,94.5
2023-04-30T23:10:24.101Z,93.5
2023-04-30T23:15:29.080Z,94
2023-04-30T23:20:35.238Z,95.5
2023-04-30T23:25:41.309Z,95
2023-04-30T23:30:47.412Z,92
2023-04-30T23:35:53.538Z,92
2023-04-30T23:40:59.679Z,92.5
2023-04-30T23:46:05.764Z,94
2023-04-30T23:51:11.970Z,95.5
2023-04-30T23:56:18.022Z,95
